sensor_id;sensor_type;location;lat;lon;timestamp;P1;durP1;ratioP1;P2;durP2;ratioP2
30515;SDS011;17297;54.022;10.760;2023-03-23T00:01:02;4.65;;;4.15;;
30515;SDS011;17297;54.022;10.760;2023-03-23T00:03:30;4.82;;;3.70;;
30515;SDS011;17297;54.022;10.760;2023-03-23T00:05:57;5.07;;;2.88;;
30515;SDS011;17297;54.022;10.760;2023-03-23T00:08:29;11.32;;;4.72;;
30515;SDS011;17297;54.022;10.760;2023-03-23T00:10:55;4.68;;;3.15;;
30515;SDS011;17297;54.022;10.760;2023-03-23T00:13:25;5.07;;;3.70;;
30515;SDS011;17297;54.022;10.760;2023-03-23T00:15:50;3.80;;;2.90;;
30515;SDS011;17297;54.022;10.760;2023-03-23T00:18:21;4.60;;;3.45;;
30515;SDS011;17297;54.022;10.760;2023-03-23T00:20:48;2.95;;;2.67;;
30515;SDS011;17297;54.022;10.760;2023-03-23T00:23:18;4.65;;;3.10;;
30515;SDS011;17297;54.022;10.760;2023-03-23T00:25:49;4.75;;;3.13;;
30515;SDS011;17297;54.022;10.760;2023-03-23T00:28:21;4.10;;;2.97;;
30515;SDS011;17297;54.022;10.760;2023-03-23T00:31:03;6.90;;;3.35;;
30515;SDS011;17297;54.022;10.760;2023-03-23T00:33:31;4.85;;;2.78;;
30515;SDS011;17297;54.022;10.760;2023-03-23T00:35:58;4.78;;;3.75;;
30515;SDS011;17297;54.022;10.760;2023-03-23T00:38:25;4.25;;;3.05;;
30515;SDS011;17297;54.022;10.760;2023-03-23T00:40:52;3.38;;;2.90;;
30515;SDS011;17297;54.022;10.760;2023-03-23T00:43:19;4.85;;;3.60;;
30515;SDS011;17297;54.022;10.760;2023-03-23T00:45:45;4.50;;;3.38;;
30515;SDS011;17297;54.022;10.760;2023-03-23T00:48:27;3.83;;;3.42;;
30515;SDS011;17297;54.022;10.760;2023-03-23T00:50:53;4.03;;;2.97;;
30515;SDS011;17297;54.022;10.760;2023-03-23T00:53:20;4.22;;;3.40;;
30515;SDS011;17297;54.022;10.760;2023-03-23T00:55:46;3.90;;;3.35;;
30515;SDS011;17297;54.022;10.760;2023-03-23T00:58:13;4.65;;;3.33;;
30515;SDS011;17297;54.022;10.760;2023-03-23T01:00:39;5.57;;;3.63;;
30515;SDS011;17297;54.022;10.760;2023-03-23T01:03:05;4.47;;;3.42;;
30515;SDS011;17297;54.022;10.760;2023-03-23T01:05:35;4.30;;;3.00;;
30515;SDS011;17297;54.022;10.760;2023-03-23T01:08:02;5.50;;;3.50;;
30515;SDS011;17297;54.022;10.760;2023-03-23T01:10:29;4.40;;;3.47;;
30515;SDS011;17297;54.022;10.760;2023-03-23T01:12:58;5.43;;;4.03;;
30515;SDS011;17297;54.022;10.760;2023-03-23T01:15:27;5.25;;;3.95;;
30515;SDS011;17297;54.022;10.760;2023-03-23T01:17:54;5.35;;;3.92;;
30515;SDS011;17297;54.022;10.760;2023-03-23T01:20:20;4.80;;;3.53;;
30515;SDS011;17297;54.022;10.760;2023-03-23T01:22:45;5.18;;;3.70;;
30515;SDS011;17297;54.022;10.760;2023-03-23T01:25:11;4.13;;;3.17;;
30515;SDS011;17297;54.022;10.760;2023-03-23T01:27:38;5.65;;;3.15;;
30515;SDS011;17297;54.022;10.760;2023-03-23T01:30:04;3.83;;;3.13;;
30515;SDS011;17297;54.022;10.760;2023-03-23T01:32:32;4.07;;;3.20;;
30515;SDS011;17297;54.022;10.760;2023-03-23T01:34:58;4.55;;;2.92;;
30515;SDS011;17297;54.022;10.760;2023-03-23T01:37:23;4.40;;;3.28;;
30515;SDS011;17297;54.022;10.760;2023-03-23T01:39:52;5.25;;;3.50;;
30515;SDS011;17297;54.022;10.760;2023-03-23T01:42:21;4.35;;;3.63;;
30515;SDS011;17297;54.022;10.760;2023-03-23T01:47:17;4.88;;;3.85;;
30515;SDS011;17297;54.022;10.760;2023-03-23T01:49:48;5.20;;;3.65;;
30515;SDS011;17297;54.022;10.760;2023-03-23T01:52:18;5.20;;;3.90;;
30515;SDS011;17297;54.022;10.760;2023-03-23T01:54:49;5.40;;;3.60;;
30515;SDS011;17297;54.022;10.760;2023-03-23T01:57:19;5.03;;;3.95;;
30515;SDS011;17297;54.022;10.760;2023-03-23T01:59:47;4.15;;;3.72;;
30515;SDS011;17297;54.022;10.760;2023-03-23T02:02:22;4.10;;;3.70;;
30515;SDS011;17297;54.022;10.760;2023-03-23T02:04:49;4.63;;;4.03;;
30515;SDS011;17297;54.022;10.760;2023-03-23T02:07:19;5.72;;;4.25;;
30515;SDS011;17297;54.022;10.760;2023-03-23T02:09:47;6.28;;;4.22;;
30515;SDS011;17297;54.022;10.760;2023-03-23T02:12:14;6.00;;;3.92;;
30515;SDS011;17297;54.022;10.760;2023-03-23T02:14:40;5.53;;;4.53;;
30515;SDS011;17297;54.022;10.760;2023-03-23T02:19:51;5.55;;;4.20;;
30515;SDS011;17297;54.022;10.760;2023-03-23T02:28:30;5.55;;;5.00;;
30515;SDS011;17297;54.022;10.760;2023-03-23T02:31:21;4.65;;;4.00;;
30515;SDS011;17297;54.022;10.760;2023-03-23T02:34:16;4.50;;;3.80;;
30515;SDS011;17297;54.022;10.760;2023-03-23T02:39:34;4.85;;;4.00;;
30515;SDS011;17297;54.022;10.760;2023-03-23T02:42:26;6.75;;;4.95;;
30515;SDS011;17297;54.022;10.760;2023-03-23T02:44:56;3.97;;;3.38;;
30515;SDS011;17297;54.022;10.760;2023-03-23T02:47:25;5.05;;;4.35;;
30515;SDS011;17297;54.022;10.760;2023-03-23T02:49:53;4.72;;;3.78;;
30515;SDS011;17297;54.022;10.760;2023-03-23T02:52:39;5.57;;;4.30;;
30515;SDS011;17297;54.022;10.760;2023-03-23T02:55:07;4.28;;;3.58;;
30515;SDS011;17297;54.022;10.760;2023-03-23T02:57:36;5.20;;;4.35;;
30515;SDS011;17297;54.022;10.760;2023-03-23T03:00:05;5.78;;;3.28;;
30515;SDS011;17297;54.022;10.760;2023-03-23T03:02:38;5.65;;;4.30;;
30515;SDS011;17297;54.022;10.760;2023-03-23T03:10:27;5.00;;;4.10;;
30515;SDS011;17297;54.022;10.760;2023-03-23T03:13:17;4.97;;;3.85;;
30515;SDS011;17297;54.022;10.760;2023-03-23T03:16:01;5.25;;;4.05;;
30515;SDS011;17297;54.022;10.760;2023-03-23T03:18:32;4.55;;;3.63;;
30515;SDS011;17297;54.022;10.760;2023-03-23T03:21:04;4.75;;;3.70;;
30515;SDS011;17297;54.022;10.760;2023-03-23T03:23:34;4.88;;;4.10;;
30515;SDS011;17297;54.022;10.760;2023-03-23T03:26:03;5.05;;;3.20;;
30515;SDS011;17297;54.022;10.760;2023-03-23T03:28:40;4.57;;;3.58;;
30515;SDS011;17297;54.022;10.760;2023-03-23T03:31:06;4.82;;;3.42;;
30515;SDS011;17297;54.022;10.760;2023-03-23T03:33:32;5.70;;;3.65;;
30515;SDS011;17297;54.022;10.760;2023-03-23T03:36:02;4.18;;;3.78;;
30515;SDS011;17297;54.022;10.760;2023-03-23T03:38:43;4.95;;;3.85;;
30515;SDS011;17297;54.022;10.760;2023-03-23T03:41:10;4.40;;;3.28;;
30515;SDS011;17297;54.022;10.760;2023-03-23T03:43:38;4.57;;;3.90;;
30515;SDS011;17297;54.022;10.760;2023-03-23T03:46:04;5.10;;;3.40;;
30515;SDS011;17297;54.022;10.760;2023-03-23T03:48:31;4.13;;;3.72;;
30515;SDS011;17297;54.022;10.760;2023-03-23T03:50:56;6.70;;;3.67;;
30515;SDS011;17297;54.022;10.760;2023-03-23T03:53:22;4.20;;;3.72;;
30515;SDS011;17297;54.022;10.760;2023-03-23T03:55:49;4.25;;;3.70;;
30515;SDS011;17297;54.022;10.760;2023-03-23T03:58:16;3.80;;;3.45;;
30515;SDS011;17297;54.022;10.760;2023-03-23T04:01:03;4.40;;;3.15;;
30515;SDS011;17297;54.022;10.760;2023-03-23T04:03:33;3.60;;;3.22;;
30515;SDS011;17297;54.022;10.760;2023-03-23T04:06:05;3.63;;;3.00;;
30515;SDS011;17297;54.022;10.760;2023-03-23T04:08:33;4.32;;;3.38;;
30515;SDS011;17297;54.022;10.760;2023-03-23T04:11:00;3.75;;;3.45;;
30515;SDS011;17297;54.022;10.760;2023-03-23T04:13:28;3.88;;;3.50;;
30515;SDS011;17297;54.022;10.760;2023-03-23T04:16:20;6.78;;;3.63;;
30515;SDS011;17297;54.022;10.760;2023-03-23T04:18:46;3.92;;;3.28;;
30515;SDS011;17297;54.022;10.760;2023-03-23T04:21:14;5.13;;;3.17;;
30515;SDS011;17297;54.022;10.760;2023-03-23T04:23:39;4.82;;;3.55;;
30515;SDS011;17297;54.022;10.760;2023-03-23T04:26:06;3.80;;;3.47;;
30515;SDS011;17297;54.022;10.760;2023-03-23T04:28:39;4.43;;;3.83;;
30515;SDS011;17297;54.022;10.760;2023-03-23T04:31:28;4.90;;;3.55;;
30515;SDS011;17297;54.022;10.760;2023-03-23T04:34:07;5.20;;;3.60;;
30515;SDS011;17297;54.022;10.760;2023-03-23T04:36:39;3.92;;;3.42;;
30515;SDS011;17297;54.022;10.760;2023-03-23T04:39:11;5.22;;;4.28;;
30515;SDS011;17297;54.022;10.760;2023-03-23T04:41:41;5.60;;;4.47;;
30515;SDS011;17297;54.022;10.760;2023-03-23T04:44:29;4.35;;;3.55;;
30515;SDS011;17297;54.022;10.760;2023-03-23T04:47:10;5.00;;;3.80;;
30515;SDS011;17297;54.022;10.760;2023-03-23T04:49:42;5.28;;;4.13;;
30515;SDS011;17297;54.022;10.760;2023-03-23T04:52:14;4.10;;;3.70;;
30515;SDS011;17297;54.022;10.760;2023-03-23T04:54:43;4.45;;;4.05;;
30515;SDS011;17297;54.022;10.760;2023-03-23T04:57:10;4.53;;;3.92;;
30515;SDS011;17297;54.022;10.760;2023-03-23T04:59:41;5.35;;;4.63;;
30515;SDS011;17297;54.022;10.760;2023-03-23T05:02:18;4.50;;;4.10;;
30515;SDS011;17297;54.022;10.760;2023-03-23T05:04:45;4.57;;;3.70;;
30515;SDS011;17297;54.022;10.760;2023-03-23T05:07:16;4.50;;;3.65;;
30515;SDS011;17297;54.022;10.760;2023-03-23T05:09:46;4.35;;;3.83;;
30515;SDS011;17297;54.022;10.760;2023-03-23T05:12:13;5.05;;;4.22;;
30515;SDS011;17297;54.022;10.760;2023-03-23T05:15:05;4.28;;;3.60;;
30515;SDS011;17297;54.022;10.760;2023-03-23T05:17:33;7.45;;;4.72;;
30515;SDS011;17297;54.022;10.760;2023-03-23T05:20:02;6.25;;;4.13;;
30515;SDS011;17297;54.022;10.760;2023-03-23T05:25:05;6.28;;;3.47;;
30515;SDS011;17297;54.022;10.760;2023-03-23T05:27:37;5.35;;;4.05;;
30515;SDS011;17297;54.022;10.760;2023-03-23T05:30:17;5.68;;;3.80;;
30515;SDS011;17297;54.022;10.760;2023-03-23T05:32:43;5.68;;;4.45;;
30515;SDS011;17297;54.022;10.760;2023-03-23T05:35:29;6.22;;;4.22;;
30515;SDS011;17297;54.022;10.760;2023-03-23T05:37:55;7.30;;;5.03;;
30515;SDS011;17297;54.022;10.760;2023-03-23T05:40:22;5.35;;;4.63;;
30515;SDS011;17297;54.022;10.760;2023-03-23T05:42:54;5.28;;;4.50;;
30515;SDS011;17297;54.022;10.760;2023-03-23T05:45:29;9.10;;;5.82;;
30515;SDS011;17297;54.022;10.760;2023-03-23T05:47:55;6.57;;;5.47;;
30515;SDS011;17297;54.022;10.760;2023-03-23T05:50:34;8.25;;;4.50;;
30515;SDS011;17297;54.022;10.760;2023-03-23T05:53:03;5.35;;;4.18;;
30515;SDS011;17297;54.022;10.760;2023-03-23T05:55:34;7.13;;;5.13;;
30515;SDS011;17297;54.022;10.760;2023-03-23T05:58:09;5.55;;;4.97;;
30515;SDS011;17297;54.022;10.760;2023-03-23T06:00:37;6.95;;;5.43;;
30515;SDS011;17297;54.022;10.760;2023-03-23T06:03:16;5.55;;;4.90;;
30515;SDS011;17297;54.022;10.760;2023-03-23T06:05:48;6.68;;;5.07;;
30515;SDS011;17297;54.022;10.760;2023-03-23T06:08:17;5.15;;;4.32;;
30515;SDS011;17297;54.022;10.760;2023-03-23T06:10:43;4.30;;;3.90;;
30515;SDS011;17297;54.022;10.760;2023-03-23T06:13:10;5.32;;;4.82;;
30515;SDS011;17297;54.022;10.760;2023-03-23T06:15:43;8.18;;;5.25;;
30515;SDS011;17297;54.022;10.760;2023-03-23T06:18:16;6.72;;;5.22;;
30515;SDS011;17297;54.022;10.760;2023-03-23T06:21:09;6.00;;;4.93;;
30515;SDS011;17297;54.022;10.760;2023-03-23T06:23:50;6.18;;;4.68;;
30515;SDS011;17297;54.022;10.760;2023-03-23T06:26:18;5.35;;;4.25;;
30515;SDS011;17297;54.022;10.760;2023-03-23T06:28:48;5.53;;;4.90;;
30515;SDS011;17297;54.022;10.760;2023-03-23T06:31:14;4.75;;;4.28;;
30515;SDS011;17297;54.022;10.760;2023-03-23T06:33:40;5.20;;;4.20;;
30515;SDS011;17297;54.022;10.760;2023-03-23T06:36:26;4.45;;;4.05;;
30515;SDS011;17297;54.022;10.760;2023-03-23T06:39:07;5.20;;;4.57;;
30515;SDS011;17297;54.022;10.760;2023-03-23T06:41:46;4.88;;;3.92;;
30515;SDS011;17297;54.022;10.760;2023-03-23T06:44:11;5.10;;;4.43;;
30515;SDS011;17297;54.022;10.760;2023-03-23T06:46:45;4.60;;;4.13;;
30515;SDS011;17297;54.022;10.760;2023-03-23T06:49:16;4.95;;;4.30;;
30515;SDS011;17297;54.022;10.760;2023-03-23T06:51:53;4.60;;;3.92;;
30515;SDS011;17297;54.022;10.760;2023-03-23T06:54:21;4.55;;;3.85;;
30515;SDS011;17297;54.022;10.760;2023-03-23T06:56:47;4.45;;;3.97;;
30515;SDS011;17297;54.022;10.760;2023-03-23T06:59:13;5.57;;;4.28;;
30515;SDS011;17297;54.022;10.760;2023-03-23T07:01:39;4.78;;;4.07;;
30515;SDS011;17297;54.022;10.760;2023-03-23T07:04:05;3.72;;;3.42;;
30515;SDS011;17297;54.022;10.760;2023-03-23T07:06:46;4.70;;;3.75;;
30515;SDS011;17297;54.022;10.760;2023-03-23T07:09:12;3.72;;;3.42;;
30515;SDS011;17297;54.022;10.760;2023-03-23T07:11:37;4.00;;;3.60;;
30515;SDS011;17297;54.022;10.760;2023-03-23T07:14:12;6.38;;;4.25;;
30515;SDS011;17297;54.022;10.760;2023-03-23T07:16:39;4.07;;;3.65;;
30515;SDS011;17297;54.022;10.760;2023-03-23T07:19:04;4.78;;;4.25;;
30515;SDS011;17297;54.022;10.760;2023-03-23T07:21:30;3.97;;;3.58;;
30515;SDS011;17297;54.022;10.760;2023-03-23T07:23:56;4.90;;;3.50;;
30515;SDS011;17297;54.022;10.760;2023-03-23T07:26:48;4.55;;;3.40;;
30515;SDS011;17297;54.022;10.760;2023-03-23T07:29:13;3.70;;;3.40;;
30515;SDS011;17297;54.022;10.760;2023-03-23T07:31:45;4.53;;;3.25;;
30515;SDS011;17297;54.022;10.760;2023-03-23T07:34:12;3.55;;;2.90;;
30515;SDS011;17297;54.022;10.760;2023-03-23T07:36:59;3.40;;;3.10;;
30515;SDS011;17297;54.022;10.760;2023-03-23T07:39:27;3.97;;;3.10;;
30515;SDS011;17297;54.022;10.760;2023-03-23T07:41:55;3.15;;;2.80;;
30515;SDS011;17297;54.022;10.760;2023-03-23T07:44:33;3.47;;;2.83;;
30515;SDS011;17297;54.022;10.760;2023-03-23T07:47:05;3.78;;;2.60;;
30515;SDS011;17297;54.022;10.760;2023-03-23T07:49:31;3.60;;;2.42;;
30515;SDS011;17297;54.022;10.760;2023-03-23T07:52:09;3.00;;;2.72;;
30515;SDS011;17297;54.022;10.760;2023-03-23T07:54:36;3.78;;;2.70;;
30515;SDS011;17297;54.022;10.760;2023-03-23T07:57:06;3.33;;;2.15;;
30515;SDS011;17297;54.022;10.760;2023-03-23T07:59:38;2.92;;;2.33;;
30515;SDS011;17297;54.022;10.760;2023-03-23T08:02:03;3.45;;;2.28;;
30515;SDS011;17297;54.022;10.760;2023-03-23T08:04:47;4.05;;;2.33;;
30515;SDS011;17297;54.022;10.760;2023-03-23T08:07:13;2.40;;;2.13;;
30515;SDS011;17297;54.022;10.760;2023-03-23T08:10:00;2.90;;;2.60;;
30515;SDS011;17297;54.022;10.760;2023-03-23T08:15:18;2.78;;;1.95;;
30515;SDS011;17297;54.022;10.760;2023-03-23T08:18:03;3.92;;;2.40;;
30515;SDS011;17297;54.022;10.760;2023-03-23T08:20:48;5.47;;;1.85;;
30515;SDS011;17297;54.022;10.760;2023-03-23T08:23:30;3.17;;;1.70;;
30515;SDS011;17297;54.022;10.760;2023-03-23T08:26:16;2.40;;;2.20;;
30515;SDS011;17297;54.022;10.760;2023-03-23T08:28:57;2.05;;;1.40;;
30515;SDS011;17297;54.022;10.760;2023-03-23T08:31:28;2.22;;;1.23;;
30515;SDS011;17297;54.022;10.760;2023-03-23T08:34:03;2.22;;;0.98;;
30515;SDS011;17297;54.022;10.760;2023-03-23T08:37:05;1.85;;;1.33;;
30515;SDS011;17297;54.022;10.760;2023-03-23T08:39:50;1.15;;;0.88;;
30515;SDS011;17297;54.022;10.760;2023-03-23T08:42:38;1.67;;;1.00;;
30515;SDS011;17297;54.022;10.760;2023-03-23T08:45:14;2.47;;;0.80;;
30515;SDS011;17297;54.022;10.760;2023-03-23T08:48:00;2.20;;;1.08;;
30515;SDS011;17297;54.022;10.760;2023-03-23T08:50:44;2.45;;;0.93;;
30515;SDS011;17297;54.022;10.760;2023-03-23T08:53:30;1.88;;;0.80;;
30515;SDS011;17297;54.022;10.760;2023-03-23T08:56:21;3.85;;;1.10;;
30515;SDS011;17297;54.022;10.760;2023-03-23T08:59:05;1.05;;;0.70;;
30515;SDS011;17297;54.022;10.760;2023-03-23T09:01:44;4.05;;;1.52;;
30515;SDS011;17297;54.022;10.760;2023-03-23T09:04:24;3.78;;;1.33;;
30515;SDS011;17297;54.022;10.760;2023-03-23T09:07:01;3.17;;;1.30;;
30515;SDS011;17297;54.022;10.760;2023-03-23T09:09:27;2.20;;;1.13;;
30515;SDS011;17297;54.022;10.760;2023-03-23T09:11:53;1.63;;;1.30;;
30515;SDS011;17297;54.022;10.760;2023-03-23T09:14:18;2.95;;;1.40;;
30515;SDS011;17297;54.022;10.760;2023-03-23T09:16:44;2.33;;;2.05;;
30515;SDS011;17297;54.022;10.760;2023-03-23T09:19:10;3.17;;;1.80;;
30515;SDS011;17297;54.022;10.760;2023-03-23T09:21:37;1.63;;;1.42;;
30515;SDS011;17297;54.022;10.760;2023-03-23T09:24:03;1.73;;;1.35;;
30515;SDS011;17297;54.022;10.760;2023-03-23T09:26:30;1.67;;;1.40;;
30515;SDS011;17297;54.022;10.760;2023-03-23T09:28:55;3.15;;;1.50;;
30515;SDS011;17297;54.022;10.760;2023-03-23T09:31:21;1.73;;;1.30;;
30515;SDS011;17297;54.022;10.760;2023-03-23T09:33:47;2.15;;;1.42;;
30515;SDS011;17297;54.022;10.760;2023-03-23T09:36:17;2.13;;;1.38;;
30515;SDS011;17297;54.022;10.760;2023-03-23T09:38:43;2.95;;;1.70;;
30515;SDS011;17297;54.022;10.760;2023-03-23T09:49:34;3.33;;;1.15;;
30515;SDS011;17297;54.022;10.760;2023-03-23T09:52:09;2.97;;;1.30;;
30515;SDS011;17297;54.022;10.760;2023-03-23T09:54:44;1.80;;;1.20;;
30515;SDS011;17297;54.022;10.760;2023-03-23T10:00:28;2.20;;;1.00;;
30515;SDS011;17297;54.022;10.760;2023-03-23T10:02:59;5.25;;;3.08;;
30515;SDS011;17297;54.022;10.760;2023-03-23T10:05:39;2.70;;;1.27;;
30515;SDS011;17297;54.022;10.760;2023-03-23T10:08:11;3.63;;;1.80;;
30515;SDS011;17297;54.022;10.760;2023-03-23T10:13:32;2.70;;;1.15;;
30515;SDS011;17297;54.022;10.760;2023-03-23T10:16:08;2.80;;;1.50;;
30515;SDS011;17297;54.022;10.760;2023-03-23T10:18:41;3.92;;;1.90;;
30515;SDS011;17297;54.022;10.760;2023-03-23T10:21:17;2.67;;;1.23;;
30515;SDS011;17297;54.022;10.760;2023-03-23T10:26:18;2.90;;;1.80;;
30515;SDS011;17297;54.022;10.760;2023-03-23T10:29:36;1.70;;;1.10;;
30515;SDS011;17297;54.022;10.760;2023-03-23T10:34:40;3.20;;;1.50;;
30515;SDS011;17297;54.022;10.760;2023-03-23T10:37:20;1.95;;;1.27;;
30515;SDS011;17297;54.022;10.760;2023-03-23T10:47:49;4.05;;;1.05;;
30515;SDS011;17297;54.022;10.760;2023-03-23T10:50:22;2.60;;;1.20;;
30515;SDS011;17297;54.022;10.760;2023-03-23T10:52:51;2.15;;;1.08;;
30515;SDS011;17297;54.022;10.760;2023-03-23T10:55:21;2.80;;;1.00;;
30515;SDS011;17297;54.022;10.760;2023-03-23T10:57:59;2.42;;;1.30;;
30515;SDS011;17297;54.022;10.760;2023-03-23T11:00:29;13.68;;;3.03;;
30515;SDS011;17297;54.022;10.760;2023-03-23T11:03:06;1.42;;;1.33;;
30515;SDS011;17297;54.022;10.760;2023-03-23T11:05:44;3.63;;;1.40;;
30515;SDS011;17297;54.022;10.760;2023-03-23T11:08:37;1.80;;;1.10;;
30515;SDS011;17297;54.022;10.760;2023-03-23T11:11:11;2.88;;;1.45;;
30515;SDS011;17297;54.022;10.760;2023-03-23T11:13:42;4.20;;;1.58;;
30515;SDS011;17297;54.022;10.760;2023-03-23T11:16:09;3.50;;;1.40;;
30515;SDS011;17297;54.022;10.760;2023-03-23T11:18:39;3.13;;;1.20;;
30515;SDS011;17297;54.022;10.760;2023-03-23T11:21:08;2.05;;;1.17;;
30515;SDS011;17297;54.022;10.760;2023-03-23T11:23:38;2.08;;;1.17;;
30515;SDS011;17297;54.022;10.760;2023-03-23T11:26:27;1.35;;;0.90;;
30515;SDS011;17297;54.022;10.760;2023-03-23T11:31:35;5.75;;;2.25;;
30515;SDS011;17297;54.022;10.760;2023-03-23T11:34:04;2.95;;;1.15;;
30515;SDS011;17297;54.022;10.760;2023-03-23T11:36:38;3.60;;;1.40;;
30515;SDS011;17297;54.022;10.760;2023-03-23T11:39:20;4.30;;;1.60;;
30515;SDS011;17297;54.022;10.760;2023-03-23T11:41:47;2.55;;;1.27;;
30515;SDS011;17297;54.022;10.760;2023-03-23T11:44:13;4.25;;;1.55;;
30515;SDS011;17297;54.022;10.760;2023-03-23T11:46:41;3.40;;;1.27;;
30515;SDS011;17297;54.022;10.760;2023-03-23T11:49:10;4.53;;;1.75;;
30515;SDS011;17297;54.022;10.760;2023-03-23T11:51:54;3.05;;;1.30;;
30515;SDS011;17297;54.022;10.760;2023-03-23T11:54:49;4.90;;;1.17;;
30515;SDS011;17297;54.022;10.760;2023-03-23T11:57:27;3.28;;;1.15;;
30515;SDS011;17297;54.022;10.760;2023-03-23T11:59:56;4.05;;;1.40;;
30515;SDS011;17297;54.022;10.760;2023-03-23T12:02:48;3.03;;;1.40;;
30515;SDS011;17297;54.022;10.760;2023-03-23T12:08:13;2.67;;;1.15;;
30515;SDS011;17297;54.022;10.760;2023-03-23T12:10:45;2.97;;;1.20;;
30515;SDS011;17297;54.022;10.760;2023-03-23T12:13:22;2.90;;;1.35;;
30515;SDS011;17297;54.022;10.760;2023-03-23T12:16:28;5.70;;;1.73;;
30515;SDS011;17297;54.022;10.760;2023-03-23T12:19:15;1.60;;;1.10;;
30515;SDS011;17297;54.022;10.760;2023-03-23T12:21:56;4.47;;;1.33;;
30515;SDS011;17297;54.022;10.760;2023-03-23T12:32:58;2.40;;;1.73;;
30515;SDS011;17297;54.022;10.760;2023-03-23T12:38:41;2.65;;;1.27;;
30515;SDS011;17297;54.022;10.760;2023-03-23T12:41:33;6.00;;;2.75;;
30515;SDS011;17297;54.022;10.760;2023-03-23T12:44:09;5.82;;;2.95;;
30515;SDS011;17297;54.022;10.760;2023-03-23T12:49:23;3.55;;;1.60;;
30515;SDS011;17297;54.022;10.760;2023-03-23T12:57:13;3.00;;;1.30;;
30515;SDS011;17297;54.022;10.760;2023-03-23T12:59:52;3.95;;;1.40;;
30515;SDS011;17297;54.022;10.760;2023-03-23T13:02:48;4.07;;;1.48;;
30515;SDS011;17297;54.022;10.760;2023-03-23T13:05:35;3.63;;;1.45;;
30515;SDS011;17297;54.022;10.760;2023-03-23T13:08:09;6.15;;;1.52;;
30515;SDS011;17297;54.022;10.760;2023-03-23T13:10:45;4.03;;;1.10;;
30515;SDS011;17297;54.022;10.760;2023-03-23T13:13:14;3.60;;;1.35;;
30515;SDS011;17297;54.022;10.760;2023-03-23T13:16:01;5.35;;;2.08;;
30515;SDS011;17297;54.022;10.760;2023-03-23T13:21:27;2.90;;;1.42;;
30515;SDS011;17297;54.022;10.760;2023-03-23T13:23:57;4.13;;;1.15;;
30515;SDS011;17297;54.022;10.760;2023-03-23T13:26:26;3.38;;;1.58;;
30515;SDS011;17297;54.022;10.760;2023-03-23T13:29:05;3.33;;;1.83;;
30515;SDS011;17297;54.022;10.760;2023-03-23T13:31:36;2.45;;;1.50;;
30515;SDS011;17297;54.022;10.760;2023-03-23T13:34:21;6.15;;;1.38;;
30515;SDS011;17297;54.022;10.760;2023-03-23T13:37:00;3.95;;;1.80;;
30515;SDS011;17297;54.022;10.760;2023-03-23T13:42:28;2.42;;;1.15;;
30515;SDS011;17297;54.022;10.760;2023-03-23T13:47:46;3.75;;;1.45;;
30515;SDS011;17297;54.022;10.760;2023-03-23T13:50:23;5.63;;;2.47;;
30515;SDS011;17297;54.022;10.760;2023-03-23T13:52:53;3.85;;;1.58;;
30515;SDS011;17297;54.022;10.760;2023-03-23T14:05:42;2.75;;;1.35;;
30515;SDS011;17297;54.022;10.760;2023-03-23T14:10:43;3.78;;;1.50;;
30515;SDS011;17297;54.022;10.760;2023-03-23T14:13:15;2.95;;;1.13;;
30515;SDS011;17297;54.022;10.760;2023-03-23T14:16:03;3.42;;;1.60;;
30515;SDS011;17297;54.022;10.760;2023-03-23T14:18:39;4.43;;;1.60;;
30515;SDS011;17297;54.022;10.760;2023-03-23T14:21:11;4.82;;;1.33;;
30515;SDS011;17297;54.022;10.760;2023-03-23T14:23:39;5.03;;;1.90;;
30515;SDS011;17297;54.022;10.760;2023-03-23T14:26:26;4.70;;;1.58;;
30515;SDS011;17297;54.022;10.760;2023-03-23T14:28:51;6.60;;;2.08;;
30515;SDS011;17297;54.022;10.760;2023-03-23T14:31:22;3.75;;;1.48;;
30515;SDS011;17297;54.022;10.760;2023-03-23T14:33:49;3.83;;;2.00;;
30515;SDS011;17297;54.022;10.760;2023-03-23T14:36:23;3.97;;;1.67;;
30515;SDS011;17297;54.022;10.760;2023-03-23T14:41:31;2.50;;;1.27;;
30515;SDS011;17297;54.022;10.760;2023-03-23T14:43:58;5.00;;;1.65;;
30515;SDS011;17297;54.022;10.760;2023-03-23T14:46:25;4.20;;;1.40;;
30515;SDS011;17297;54.022;10.760;2023-03-23T14:48:51;4.57;;;1.55;;
30515;SDS011;17297;54.022;10.760;2023-03-23T14:51:18;2.33;;;2.17;;
30515;SDS011;17297;54.022;10.760;2023-03-23T14:53:45;5.03;;;2.67;;
30515;SDS011;17297;54.022;10.760;2023-03-23T14:56:14;2.33;;;1.50;;
30515;SDS011;17297;54.022;10.760;2023-03-23T14:58:45;2.53;;;1.40;;
30515;SDS011;17297;54.022;10.760;2023-03-23T15:01:17;2.55;;;1.67;;
30515;SDS011;17297;54.022;10.760;2023-03-23T15:04:03;3.20;;;1.40;;
30515;SDS011;17297;54.022;10.760;2023-03-23T15:06:32;2.75;;;1.40;;
30515;SDS011;17297;54.022;10.760;2023-03-23T15:09:00;2.25;;;1.30;;
30515;SDS011;17297;54.022;10.760;2023-03-23T15:11:29;2.05;;;1.52;;
30515;SDS011;17297;54.022;10.760;2023-03-23T15:13:58;1.50;;;1.13;;
30515;SDS011;17297;54.022;10.760;2023-03-23T15:16:32;1.70;;;1.20;;
30515;SDS011;17297;54.022;10.760;2023-03-23T15:19:03;4.18;;;1.27;;
30515;SDS011;17297;54.022;10.760;2023-03-23T15:21:32;1.20;;;1.10;;
30515;SDS011;17297;54.022;10.760;2023-03-23T15:24:02;2.90;;;1.75;;
30515;SDS011;17297;54.022;10.760;2023-03-23T15:26:43;1.67;;;1.20;;
30515;SDS011;17297;54.022;10.760;2023-03-23T15:31:41;2.45;;;1.40;;
30515;SDS011;17297;54.022;10.760;2023-03-23T15:34:13;0.98;;;0.82;;
30515;SDS011;17297;54.022;10.760;2023-03-23T15:36:43;3.88;;;1.00;;
30515;SDS011;17297;54.022;10.760;2023-03-23T15:39:11;2.05;;;1.02;;
30515;SDS011;17297;54.022;10.760;2023-03-23T15:41:45;2.97;;;1.42;;
30515;SDS011;17297;54.022;10.760;2023-03-23T15:44:19;3.50;;;1.10;;
30515;SDS011;17297;54.022;10.760;2023-03-23T15:47:12;3.22;;;1.05;;
30515;SDS011;17297;54.022;10.760;2023-03-23T15:49:38;2.92;;;1.30;;
30515;SDS011;17297;54.022;10.760;2023-03-23T15:52:03;1.95;;;1.10;;
30515;SDS011;17297;54.022;10.760;2023-03-23T15:54:30;4.80;;;1.27;;
30515;SDS011;17297;54.022;10.760;2023-03-23T15:56:57;3.50;;;1.02;;
30515;SDS011;17297;54.022;10.760;2023-03-23T15:59:22;1.20;;;1.10;;
30515;SDS011;17297;54.022;10.760;2023-03-23T16:01:48;2.08;;;1.08;;
30515;SDS011;17297;54.022;10.760;2023-03-23T16:04:14;1.80;;;1.20;;
30515;SDS011;17297;54.022;10.760;2023-03-23T16:06:42;2.67;;;1.40;;
30515;SDS011;17297;54.022;10.760;2023-03-23T16:09:13;3.50;;;1.00;;
30515;SDS011;17297;54.022;10.760;2023-03-23T16:11:40;4.68;;;1.10;;
30515;SDS011;17297;54.022;10.760;2023-03-23T16:14:06;2.50;;;1.08;;
30515;SDS011;17297;54.022;10.760;2023-03-23T16:16:39;2.30;;;1.20;;
30515;SDS011;17297;54.022;10.760;2023-03-23T16:19:10;1.95;;;1.05;;
30515;SDS011;17297;54.022;10.760;2023-03-23T16:21:37;1.88;;;1.73;;
30515;SDS011;17297;54.022;10.760;2023-03-23T16:24:02;1.40;;;1.23;;
30515;SDS011;17297;54.022;10.760;2023-03-23T16:26:28;1.75;;;1.20;;
30515;SDS011;17297;54.022;10.760;2023-03-23T16:28:53;1.42;;;1.27;;
30515;SDS011;17297;54.022;10.760;2023-03-23T16:31:19;2.33;;;1.02;;
30515;SDS011;17297;54.022;10.760;2023-03-23T16:33:44;1.95;;;1.10;;
30515;SDS011;17297;54.022;10.760;2023-03-23T16:36:13;1.83;;;0.85;;
30515;SDS011;17297;54.022;10.760;2023-03-23T16:38:39;3.10;;;1.30;;
30515;SDS011;17297;54.022;10.760;2023-03-23T16:41:05;1.58;;;1.30;;
30515;SDS011;17297;54.022;10.760;2023-03-23T16:43:32;1.30;;;0.88;;
30515;SDS011;17297;54.022;10.760;2023-03-23T16:45:57;2.05;;;1.00;;
30515;SDS011;17297;54.022;10.760;2023-03-23T16:48:23;2.10;;;1.15;;